createdAt,value
2017-03-20T00:00:31.717Z,0
2017-03-20T00:01:46.356Z,0
2017-03-20T00:02:31.763Z,0
2017-03-20T00:03:31.782Z,0
2017-03-20T00:04:31.807Z,0
2017-03-20T00:05:31.825Z,0
2017-03-20T00:06:31.845Z,0
2017-03-20T00:07:31.268Z,0
2017-03-20T00:08:31.893Z,0
2017-03-20T00:09:31.910Z,0
2017-03-20T00:10:31.974Z,0
2017-03-20T00:11:31.947Z,0
2017-03-20T00:12:46.580Z,0
2017-03-20T00:13:31.379Z,0
2017-03-20T00:14:32.016Z,0
2017-03-20T00:15:32.024Z,0
2017-03-20T00:16:31.747Z,0
2017-03-20T00:17:32.062Z,0
2017-03-20T00:18:31.792Z,0
2017-03-20T00:19:31.848Z,0
2017-03-20T00:20:32.133Z,0
2017-03-20T00:21:31.842Z,0
2017-03-20T00:22:32.173Z,0
2017-03-20T00:23:32.196Z,0
2017-03-20T00:24:32.256Z,0
2017-03-20T00:25:32.229Z,0
2017-03-20T00:26:31.952Z,0
2017-03-20T00:27:32.272Z,0
2017-03-20T00:29:32.310Z,0
2017-03-20T00:30:32.332Z,0
2017-03-20T00:31:32.053Z,0
2017-03-20T00:32:32.076Z,0
2017-03-20T00:33:46.407Z,0
2017-03-20T00:34:32.418Z,0
2017-03-20T00:35:32.138Z,0
2017-03-20T00:36:32.454Z,0
2017-03-20T00:37:32.480Z,0
2017-03-20T00:38:32.501Z,0
2017-03-20T00:39:32.217Z,0
2017-03-20T00:41:32.598Z,0
2017-03-20T00:42:32.584Z,0
2017-03-20T00:43:47.219Z,0
2017-03-20T00:44:32.627Z,0
2017-03-20T00:45:47.255Z,0
2017-03-20T00:46:32.668Z,0
2017-03-20T00:47:32.682Z,0
2017-03-20T00:48:32.406Z,0
2017-03-20T00:49:47.491Z,0
2017-03-20T00:50:32.742Z,0
2017-03-20T00:51:32.768Z,0
2017-03-20T00:52:32.482Z,0
2017-03-20T00:53:32.506Z,0
2017-03-20T00:54:47.444Z,0
2017-03-20T00:56:47.177Z,0
2017-03-20T00:58:32.909Z,0
2017-03-20T00:59:32.932Z,0
2017-03-20T01:00:47.567Z,0
2017-03-20T01:01:32.966Z,0
2017-03-20T01:02:32.992Z,0
2017-03-20T01:03:33.016Z,0
2017-03-20T01:04:33.037Z,0
2017-03-20T01:06:32.766Z,0
2017-03-20T01:07:33.094Z,0
2017-03-20T01:08:33.116Z,0
2017-03-20T01:09:33.135Z,0
2017-03-20T01:10:33.187Z,0
2017-03-20T01:11:33.175Z,0
2017-03-20T01:12:32.889Z,0
2017-03-20T01:13:33.219Z,0
2017-03-20T01:14:33.247Z,0
2017-03-20T01:15:47.565Z,0
2017-03-20T01:16:33.278Z,0
2017-03-20T01:17:47.609Z,0
2017-03-20T01:18:47.937Z,0
2017-03-20T01:19:33.041Z,0
2017-03-20T01:20:33.057Z,0
2017-03-20T01:21:47.993Z,0
2017-03-20T01:22:33.405Z,0
2017-03-20T01:23:33.130Z,0
2017-03-20T01:24:33.446Z,0
2017-03-20T01:25:33.469Z,0
2017-03-20T01:26:33.494Z,0
2017-03-20T01:27:33.506Z,0
2017-03-20T01:28:33.226Z,0
2017-03-20T01:29:47.857Z,0
2017-03-20T01:30:33.261Z,0
2017-03-20T01:31:33.584Z,0
2017-03-20T01:32:33.613Z,0
2017-03-20T01:33:33.630Z,0
2017-03-20T01:34:33.348Z,0
2017-03-20T01:35:33.673Z,0
2017-03-20T01:36:48.305Z,0
2017-03-20T01:37:33.716Z,0
2017-03-20T01:40:33.800Z,0
2017-03-20T01:41:33.798Z,0
2017-03-20T01:42:33.512Z,0
2017-03-20T01:43:48.455Z,0
2017-03-20T01:44:33.857Z,0
2017-03-20T01:45:48.489Z,0
2017-03-20T01:46:33.900Z,0
2017-03-20T01:47:33.613Z,0
2017-03-20T01:49:48.573Z,0
2017-03-20T01:50:33.673Z,0
2017-03-20T01:51:48.310Z,0
2017-03-20T01:52:33.415Z,0
2017-03-20T01:53:33.741Z,0
2017-03-20T01:54:33.462Z,0
2017-03-20T01:55:33.813Z,0
2017-03-20T01:57:33.820Z,0
2017-03-20T01:58:34.147Z,0
2017-03-20T01:59:33.863Z,0
2017-03-20T02:00:34.187Z,0
2017-03-20T02:01:34.204Z,0
2017-03-20T02:03:34.251Z,0
2017-03-20T02:04:48.584Z,0
2017-03-20T02:05:48.899Z,0
2017-03-20T02:06:34.110Z,0
2017-03-20T02:07:34.025Z,0
2017-03-20T02:08:48.665Z,0
2017-03-20T02:10:34.386Z,0
2017-03-20T02:11:34.143Z,0
2017-03-20T02:12:48.996Z,0
2017-03-20T02:13:34.156Z,0
2017-03-20T02:14:34.174Z,0
2017-03-20T02:15:34.189Z,0
2017-03-20T02:16:34.211Z,0
2017-03-20T02:17:34.232Z,0
2017-03-20T02:18:34.257Z,0
2017-03-20T02:19:34.576Z,0
2017-03-20T02:20:34.600Z,0
2017-03-20T02:21:34.627Z,0
2017-03-20T02:22:34.636Z,0
2017-03-20T02:23:34.665Z,0
2017-03-20T02:24:48.998Z,0
2017-03-20T02:25:34.701Z,0
2017-03-20T02:26:34.722Z,0
2017-03-20T02:27:34.445Z,0
2017-03-20T02:28:34.776Z,0
2017-03-20T02:29:34.179Z,0
2017-03-20T02:30:34.804Z,0
2017-03-20T02:31:34.823Z,0
2017-03-20T02:32:34.855Z,0
2017-03-20T02:33:49.481Z,0
2017-03-20T02:34:34.593Z,0
2017-03-20T02:35:49.527Z,0
2017-03-20T02:36:34.638Z,0
2017-03-20T02:37:34.366Z,0
2017-03-20T02:38:34.679Z,0
2017-03-20T02:39:34.685Z,0
2017-03-20T02:40:49.361Z,0
2017-03-20T02:42:35.058Z,0
2017-03-20T02:43:35.083Z,0
2017-03-20T02:44:35.096Z,0
2017-03-20T02:45:49.737Z,0
2017-03-20T02:46:49.757Z,0
2017-03-20T02:47:34.552Z,0
2017-03-20T02:49:04.413Z,0
2017-03-20T02:49:35.201Z,0
2017-03-20T02:50:35.223Z,0
2017-03-20T02:51:49.854Z,0
2017-03-20T02:52:35.303Z,0
2017-03-20T02:53:35.308Z,0
2017-03-20T02:54:35.303Z,0
2017-03-20T02:55:49.936Z,0
2017-03-20T02:56:49.956Z,0
2017-03-20T02:57:35.366Z,0
2017-03-20T02:58:35.393Z,0
2017-03-20T02:59:35.103Z,0
2017-03-20T03:00:35.429Z,0
2017-03-20T03:01:35.452Z,0
2017-03-20T03:03:50.112Z,0
2017-03-20T03:04:35.511Z,0
2017-03-20T03:05:35.224Z,0
2017-03-20T03:06:35.245Z,0
2017-03-20T03:07:35.296Z,0
2017-03-20T03:08:35.595Z,0
2017-03-20T03:09:35.617Z,0
2017-03-20T03:10:35.646Z,0
2017-03-20T03:11:49.970Z,0
2017-03-20T03:12:35.681Z,0
2017-03-20T03:13:35.707Z,0
2017-03-20T03:14:35.722Z,0
2017-03-20T03:15:35.438Z,0
2017-03-20T03:16:35.149Z,0
2017-03-20T03:17:35.783Z,0
2017-03-20T03:18:35.501Z,0
2017-03-20T03:19:35.826Z,0
2017-03-20T03:20:35.536Z,0
2017-03-20T03:21:35.896Z,0
2017-03-20T03:23:49.914Z,0
2017-03-20T03:24:35.963Z,0
2017-03-20T03:25:50.561Z,0
2017-03-20T03:26:35.965Z,0
2017-03-20T03:27:35.988Z,0
2017-03-20T03:28:36.021Z,0
2017-03-20T03:31:36.075Z,0
2017-03-20T03:32:35.789Z,0
2017-03-20T03:34:50.750Z,0
2017-03-20T03:35:50.475Z,0
2017-03-20T03:36:36.173Z,0
2017-03-20T03:37:35.888Z,0
2017-03-20T03:39:50.851Z,0
2017-03-20T03:40:36.261Z,0
2017-03-20T03:41:35.970Z,0
2017-03-20T03:42:35.996Z,0
2017-03-20T03:43:50.935Z,0
2017-03-20T03:44:36.341Z,0
2017-03-20T03:45:36.360Z,0
2017-03-20T03:46:36.379Z,0
2017-03-20T03:47:36.397Z,0
2017-03-20T03:48:36.422Z,0
2017-03-20T03:49:36.441Z,0
2017-03-20T03:50:36.458Z,0
2017-03-20T03:51:36.485Z,0
2017-03-20T03:52:36.203Z,0
2017-03-20T03:53:36.532Z,0
2017-03-20T03:54:51.160Z,0
2017-03-20T03:55:51.184Z,0
2017-03-20T03:56:51.201Z,0
2017-03-20T03:57:36.617Z,0
2017-03-20T03:58:36.026Z,0
2017-03-20T04:00:36.367Z,0
2017-03-20T04:02:36.411Z,0
2017-03-20T04:03:51.357Z,0
2017-03-20T04:04:36.763Z,0
2017-03-20T04:05:36.167Z,0
2017-03-20T04:06:51.409Z,0
2017-03-20T04:07:51.133Z,0
2017-03-20T04:08:36.848Z,0
2017-03-20T04:09:36.857Z,0
2017-03-20T04:10:36.873Z,0
2017-03-20T04:11:36.595Z,0
2017-03-20T04:12:36.918Z,0
2017-03-20T04:13:36.644Z,0
2017-03-20T04:14:36.960Z,0
2017-03-20T04:15:51.593Z,0
2017-03-20T04:16:37.001Z,0
2017-03-20T04:17:37.024Z,0
2017-03-20T04:18:37.044Z,0
2017-03-20T04:19:36.760Z,0
2017-03-20T04:20:37.082Z,0
2017-03-20T04:21:51.724Z,0
2017-03-20T04:22:36.827Z,0
2017-03-20T04:23:37.149Z,0
2017-03-20T04:24:51.788Z,0
2017-03-20T04:25:51.501Z,0
2017-03-20T04:26:37.202Z,0
2017-03-20T04:27:51.846Z,0
2017-03-20T04:28:51.869Z,0
2017-03-20T04:29:37.294Z,0
2017-03-20T04:30:37.286Z,0
2017-03-20T04:32:37.333Z,0
2017-03-20T04:33:37.398Z,0
2017-03-20T04:34:37.380Z,0
2017-03-20T04:35:37.397Z,0
2017-03-20T04:36:37.109Z,0
2017-03-20T04:37:37.440Z,0
2017-03-20T04:38:52.076Z,0
2017-03-20T04:39:37.478Z,0
2017-03-20T04:40:52.118Z,0
2017-03-20T04:41:37.517Z,0
2017-03-20T04:42:37.543Z,0
2017-03-20T04:43:37.571Z,0
2017-03-20T04:44:37.281Z,0
2017-03-20T04:45:37.605Z,0
2017-03-20T04:46:51.974Z,0
2017-03-20T04:47:51.966Z,0
2017-03-20T04:48:37.664Z,0
2017-03-20T04:49:37.383Z,0
2017-03-20T04:50:37.707Z,0
2017-03-20T04:51:37.424Z,0
2017-03-20T04:52:37.446Z,0
2017-03-20T04:53:37.775Z,0
2017-03-20T04:54:37.786Z,0
2017-03-20T04:55:37.809Z,0
2017-03-20T04:56:52.450Z,0
2017-03-20T04:57:37.868Z,0
2017-03-20T04:58:52.490Z,0
2017-03-20T04:59:52.205Z,0
2017-03-20T05:01:52.287Z,0
2017-03-20T05:02:37.357Z,0
2017-03-20T05:03:37.683Z,0
2017-03-20T05:04:37.694Z,0
2017-03-20T05:05:37.713Z,0
2017-03-20T05:06:37.731Z,0
2017-03-20T05:07:37.457Z,0
2017-03-20T05:08:37.814Z,0
2017-03-20T05:09:37.803Z,0
2017-03-20T05:10:37.816Z,0
2017-03-20T05:11:52.458Z,0
2017-03-20T05:12:52.479Z,0
2017-03-20T05:13:52.499Z,0
2017-03-20T05:14:37.913Z,0
2017-03-20T05:15:38.229Z,0
2017-03-20T05:17:07.476Z,0
2017-03-20T05:17:38.269Z,0
2017-03-20T05:19:38.003Z,0
2017-03-20T05:20:38.368Z,0
2017-03-20T05:21:38.045Z,0
2017-03-20T05:22:38.075Z,0
2017-03-20T05:23:38.106Z,0
2017-03-20T05:24:38.129Z,0
2017-03-20T05:26:38.149Z,0
2017-03-20T05:27:38.481Z,0
2017-03-20T05:28:38.499Z,0
2017-03-20T05:29:37.918Z,0
2017-03-20T05:30:38.535Z,0
2017-03-20T05:31:38.254Z,0
2017-03-20T05:32:38.588Z,0
2017-03-20T05:33:38.306Z,0
2017-03-20T05:34:53.243Z,0
2017-03-20T05:35:53.258Z,0
2017-03-20T05:36:38.360Z,0
2017-03-20T05:37:38.694Z,0
2017-03-20T05:38:38.716Z,5
2017-03-20T05:40:38.748Z,5
2017-03-20T05:41:38.770Z,0
2017-03-20T05:42:38.797Z,5
2017-03-20T05:43:38.815Z,0
2017-03-20T05:44:53.448Z,0
2017-03-20T05:45:53.482Z,0
2017-03-20T05:46:38.571Z,5
2017-03-20T05:47:53.512Z,5
2017-03-20T05:48:38.927Z,5
2017-03-20T05:49:38.942Z,5
2017-03-20T05:51:38.975Z,5
2017-03-20T05:52:53.624Z,5
2017-03-20T05:53:39.026Z,5
2017-03-20T05:54:39.038Z,10
2017-03-20T05:55:39.063Z,10
2017-03-20T05:56:53.702Z,10
2017-03-20T05:57:38.806Z,10
2017-03-20T05:58:39.136Z,10
2017-03-20T05:59:39.148Z,10
2017-03-20T06:00:39.165Z,10
2017-03-20T06:01:39.194Z,15
2017-03-20T06:02:39.210Z,20
2017-03-20T06:03:39.242Z,25
2017-03-20T06:04:39.254Z,30
2017-03-20T06:05:53.281Z,25
2017-03-20T06:06:53.915Z,25
2017-03-20T06:07:39.322Z,25
2017-03-20T06:08:39.340Z,25
2017-03-20T06:09:39.359Z,25
2017-03-20T06:10:39.382Z,20
2017-03-20T06:11:53.714Z,20
2017-03-20T06:12:39.422Z,20
2017-03-20T06:13:54.092Z,20
2017-03-20T06:14:39.474Z,20
2017-03-20T06:15:39.494Z,20
2017-03-20T06:16:39.499Z,20
2017-03-20T06:17:53.841Z,15
2017-03-20T06:18:39.245Z,15
2017-03-20T06:19:54.187Z,15
2017-03-20T06:20:39.589Z,15
2017-03-20T06:21:53.621Z,15
2017-03-20T06:22:39.634Z,15
2017-03-20T06:23:39.658Z,10
2017-03-20T06:24:39.373Z,15
2017-03-20T06:25:39.703Z,15
2017-03-20T06:26:39.718Z,15
2017-03-20T06:28:39.763Z,15
2017-03-20T06:29:39.790Z,10
2017-03-20T06:30:39.849Z,10
2017-03-20T06:31:39.859Z,10
2017-03-20T06:32:54.463Z,10
2017-03-20T06:33:54.485Z,15
2017-03-20T06:34:54.503Z,20
2017-03-20T06:35:39.909Z,20
2017-03-20T06:36:54.543Z,20
2017-03-20T06:37:39.955Z,20
2017-03-20T06:38:39.974Z,20
2017-03-20T06:39:40.295Z,25
2017-03-20T06:40:39.712Z,25
2017-03-20T06:42:40.055Z,30
2017-03-20T06:43:54.391Z,30
2017-03-20T06:44:54.724Z,35
2017-03-20T06:45:54.432Z,35
2017-03-20T06:46:39.533Z,35
2017-03-20T06:47:54.774Z,35
2017-03-20T06:48:40.188Z,40
2017-03-20T06:49:54.821Z,40
2017-03-20T06:50:40.237Z,45
2017-03-20T06:51:39.937Z,45
2017-03-20T06:52:40.270Z,45
2017-03-20T06:53:54.913Z,45
2017-03-20T06:54:40.315Z,45
2017-03-20T06:55:40.342Z,45
2017-03-20T06:56:40.350Z,40
2017-03-20T06:57:40.368Z,45
2017-03-20T06:58:40.386Z,45
2017-03-20T06:59:40.453Z,35
2017-03-20T07:00:55.066Z,35
2017-03-20T07:01:54.770Z,30
2017-03-20T07:04:40.523Z,30
2017-03-20T07:05:39.937Z,25
2017-03-20T07:06:40.260Z,30
2017-03-20T07:07:40.287Z,30
2017-03-20T07:08:40.304Z,35
2017-03-20T07:09:55.249Z,30
2017-03-20T07:10:40.396Z,30
2017-03-20T07:11:40.370Z,30
2017-03-20T07:12:40.093Z,35
2017-03-20T07:13:41.021Z,30
2017-03-20T07:14:40.432Z,40
2017-03-20T07:15:40.450Z,35
2017-03-20T07:16:55.088Z,40
2017-03-20T07:17:55.415Z,40
2017-03-20T07:18:40.521Z,45
2017-03-20T07:19:55.456Z,40
2017-03-20T07:20:40.861Z,40
2017-03-20T07:21:40.880Z,40
2017-03-20T07:23:40.928Z,35
2017-03-20T07:24:40.955Z,35
2017-03-20T07:25:55.587Z,40
2017-03-20T07:26:55.602Z,40
2017-03-20T07:27:41.010Z,35
2017-03-20T07:28:40.733Z,35
2017-03-20T07:29:40.753Z,35
2017-03-20T07:30:40.203Z,30
2017-03-20T07:31:41.098Z,25
2017-03-20T07:32:41.121Z,25
2017-03-20T07:33:41.142Z,25
2017-03-20T07:34:54.865Z,20
2017-03-20T07:35:40.877Z,20
2017-03-20T07:36:40.897Z,20
2017-03-20T07:37:55.534Z,25
2017-03-20T07:38:40.648Z,30
2017-03-20T07:39:41.269Z,25
2017-03-20T07:40:41.288Z,25
2017-03-20T07:41:55.927Z,30
2017-03-20T07:43:41.362Z,30
2017-03-20T07:44:41.371Z,30
2017-03-20T07:45:41.394Z,25
2017-03-20T07:46:41.415Z,25
2017-03-20T07:47:41.438Z,30
2017-03-20T07:48:41.458Z,35
2017-03-20T07:49:41.489Z,35
2017-03-20T07:50:41.203Z,30
2017-03-20T07:51:56.143Z,35
2017-03-20T07:53:41.575Z,30
2017-03-20T07:54:41.283Z,30
2017-03-20T07:55:41.607Z,30
2017-03-20T07:56:56.248Z,35
2017-03-20T07:57:41.354Z,35
2017-03-20T07:58:41.375Z,40
2017-03-20T07:59:41.402Z,40
2017-03-20T08:00:41.415Z,40
2017-03-20T08:02:41.464Z,40
2017-03-20T08:03:41.490Z,35
2017-03-20T08:04:56.116Z,35
2017-03-20T08:05:56.436Z,35
2017-03-20T08:06:41.237Z,30
2017-03-20T08:07:41.562Z,40
2017-03-20T08:08:41.891Z,45
2017-03-20T08:09:56.526Z,55
2017-03-20T08:10:41.930Z,50
2017-03-20T08:11:41.948Z,45
2017-03-20T08:12:41.984Z,45
2017-03-20T08:13:41.999Z,50
2017-03-20T08:17:42.084Z,45
2017-03-20T08:18:41.705Z,45
2017-03-20T08:19:42.128Z,45
2017-03-20T08:20:42.144Z,50
2017-03-20T08:21:42.165Z,50
2017-03-20T08:22:42.208Z,50
2017-03-20T08:23:56.830Z,45
2017-03-20T08:24:56.851Z,40
2017-03-20T08:25:56.567Z,40
2017-03-20T08:26:42.270Z,40
2017-03-20T08:28:57.288Z,45
2017-03-20T08:29:42.348Z,50
2017-03-20T08:30:42.372Z,55
2017-03-20T08:31:42.390Z,55
2017-03-20T08:32:42.413Z,55
2017-03-20T08:33:42.432Z,50
2017-03-20T08:34:42.144Z,45
2017-03-20T08:35:57.088Z,45
2017-03-20T08:36:57.109Z,45
2017-03-20T08:37:42.520Z,50
2017-03-20T08:38:42.534Z,50
2017-03-20T08:39:42.251Z,50
2017-03-20T08:40:41.970Z,55
2017-03-20T08:41:42.599Z,60
2017-03-20T08:42:42.630Z,70
2017-03-20T08:43:42.648Z,70
2017-03-20T08:44:57.289Z,75
2017-03-20T08:45:42.696Z,75
2017-03-20T08:46:42.399Z,75
2017-03-20T08:47:42.430Z,75
2017-03-20T08:48:42.758Z,75
2017-03-20T08:49:42.507Z,65
2017-03-20T08:50:42.798Z,60
2017-03-20T08:51:57.434Z,60
2017-03-20T08:52:42.857Z,60
2017-03-20T08:53:42.876Z,65
2017-03-20T08:54:57.501Z,70
2017-03-20T08:55:58.527Z,70
2017-03-20T08:56:42.333Z,70
2017-03-20T08:57:42.966Z,70
2017-03-20T08:58:42.975Z,70
2017-03-20T08:59:43.008Z,70
2017-03-20T09:01:43.036Z,65
2017-03-20T09:02:43.072Z,70
2017-03-20T09:03:43.105Z,75
2017-03-20T09:04:42.801Z,70
2017-03-20T09:05:43.127Z,65
2017-03-20T09:06:43.145Z,70
2017-03-20T09:07:42.884Z,75
2017-03-20T09:08:42.900Z,80
2017-03-20T09:09:42.608Z,75
2017-03-20T09:10:57.549Z,85
2017-03-20T09:11:42.955Z,85
2017-03-20T09:12:43.295Z,90
2017-03-20T09:13:43.316Z,85
2017-03-20T09:14:43.034Z,80
2017-03-20T09:15:57.657Z,80
2017-03-20T09:16:57.988Z,65
2017-03-20T09:17:43.149Z,60
2017-03-20T09:18:43.420Z,55
2017-03-20T09:19:43.133Z,65
2017-03-20T09:21:43.179Z,80
2017-03-20T09:22:58.123Z,85
2017-03-20T09:23:43.240Z,85
2017-03-20T09:24:43.245Z,80
2017-03-20T09:25:58.183Z,75
2017-03-20T09:26:58.205Z,65
2017-03-20T09:27:43.616Z,60
2017-03-20T09:28:57.949Z,50
2017-03-20T09:29:58.375Z,50
2017-03-20T09:30:43.683Z,45
2017-03-20T09:31:58.320Z,50
2017-03-20T09:32:43.428Z,55
2017-03-20T09:33:43.753Z,60
2017-03-20T09:34:43.770Z,70
2017-03-20T09:36:43.815Z,70
2017-03-20T09:37:43.538Z,60
2017-03-20T09:38:43.558Z,60
2017-03-20T09:39:43.883Z,55
2017-03-20T09:40:43.901Z,55
2017-03-20T09:41:58.544Z,55
2017-03-20T09:42:58.568Z,50
2017-03-20T09:43:58.600Z,45
2017-03-20T09:44:58.611Z,50
2017-03-20T09:46:58.654Z,45
2017-03-20T09:47:43.783Z,45
2017-03-20T09:48:44.090Z,40
2017-03-20T09:49:58.719Z,40
2017-03-20T09:50:44.126Z,40
2017-03-20T09:51:44.148Z,40
2017-03-20T09:54:58.840Z,60
2017-03-20T09:55:44.243Z,60
2017-03-20T09:56:43.658Z,60
2017-03-20T09:57:44.288Z,55
2017-03-20T09:58:58.621Z,55
2017-03-20T10:00:44.350Z,65
2017-03-20T10:01:44.377Z,65
2017-03-20T10:02:44.402Z,65
2017-03-20T10:03:58.431Z,65
2017-03-20T10:04:44.481Z,60
2017-03-20T10:05:44.458Z,60
2017-03-20T10:06:44.483Z,60
2017-03-20T10:07:44.207Z,60
2017-03-20T10:08:59.146Z,60
2017-03-20T10:09:59.168Z,60
2017-03-20T10:11:44.593Z,70
2017-03-20T10:12:44.312Z,80
2017-03-20T10:13:44.651Z,75
2017-03-20T10:14:44.072Z,75
2017-03-20T10:15:44.073Z,75
2017-03-20T10:16:58.723Z,70
2017-03-20T10:17:44.739Z,70
2017-03-20T10:18:44.450Z,70
2017-03-20T10:19:58.484Z,70
2017-03-20T10:20:59.120Z,65
2017-03-20T10:21:44.818Z,65
2017-03-20T10:22:44.544Z,65
2017-03-20T10:23:44.572Z,60
2017-03-20T10:26:44.931Z,60
2017-03-20T10:27:44.956Z,60
2017-03-20T10:28:59.596Z,55
2017-03-20T10:29:59.612Z,55
2017-03-20T10:30:45.031Z,55
2017-03-20T10:31:44.739Z,50
2017-03-20T10:32:44.768Z,50
2017-03-20T10:33:45.090Z,50
2017-03-20T10:34:44.806Z,45
2017-03-20T10:35:59.749Z,45
2017-03-20T10:36:45.152Z,45
2017-03-20T10:37:45.185Z,45
2017-03-20T10:38:45.205Z,45
2017-03-20T10:39:45.225Z,45
2017-03-20T10:40:45.249Z,45
2017-03-20T10:41:45.010Z,45
2017-03-20T10:42:44.990Z,50
2017-03-20T10:43:45.310Z,55
2017-03-20T10:44:45.032Z,60
2017-03-20T10:45:45.048Z,65
2017-03-20T10:47:14.610Z,65
2017-03-20T10:48:14.631Z,65
2017-03-20T10:49:00.039Z,60
2017-03-20T10:49:45.390Z,60
2017-03-20T10:50:45.464Z,60
2017-03-20T10:52:45.210Z,70
2017-03-20T10:53:45.536Z,70
2017-03-20T10:54:45.263Z,70
2017-03-20T10:57:45.628Z,80
2017-03-20T10:58:45.646Z,85
2017-03-20T10:59:45.670Z,110
2017-03-20T11:00:45.692Z,130
2017-03-20T11:01:45.710Z,135
2017-03-20T11:02:45.739Z,125
2017-03-20T11:03:45.762Z,130
2017-03-20T11:05:00.397Z,140
2017-03-20T11:05:45.804Z,145
2017-03-20T11:09:00.488Z,165
2017-03-20T11:09:45.932Z,170
2017-03-20T11:10:45.613Z,170
2017-03-20T11:11:45.702Z,170
2017-03-20T11:12:45.665Z,170
2017-03-20T11:13:45.686Z,170
2017-03-20T11:15:00.626Z,160
2017-03-20T11:15:46.028Z,155
2017-03-20T11:16:45.749Z,145
2017-03-20T11:17:45.786Z,130
2017-03-20T11:18:45.806Z,120
2017-03-20T11:20:00.439Z,120
2017-03-20T11:20:45.840Z,115
2017-03-20T11:22:00.786Z,100
2017-03-20T11:22:45.892Z,95
2017-03-20T11:23:45.933Z,90
2017-03-20T11:24:45.935Z,90
2017-03-20T11:25:46.269Z,85
2017-03-20T11:26:46.281Z,85
2017-03-20T11:27:45.705Z,100
2017-03-20T11:28:46.036Z,110
2017-03-20T11:29:46.050Z,125
2017-03-20T11:30:45.769Z,140
2017-03-20T11:31:45.798Z,160
2017-03-20T11:32:46.140Z,170
2017-03-20T11:33:45.846Z,165
2017-03-20T11:34:46.171Z,165
2017-03-20T11:35:45.882Z,175
2017-03-20T11:36:46.213Z,175
2017-03-20T11:37:45.931Z,180
2017-03-20T11:39:01.178Z,175
2017-03-20T11:39:46.282Z,170
2017-03-20T11:40:46.304Z,160
2017-03-20T11:41:46.633Z,150
2017-03-20T11:42:46.659Z,135
2017-03-20T11:43:46.693Z,130
2017-03-20T11:45:01.073Z,120
2017-03-20T11:45:46.423Z,115
2017-03-20T11:47:01.065Z,100
2017-03-20T11:47:46.783Z,100
2017-03-20T11:48:46.801Z,105
2017-03-20T11:50:01.136Z,110
2017-03-20T11:50:46.851Z,110
2017-03-20T11:52:01.181Z,110
2017-03-20T11:53:01.205Z,110
2017-03-20T11:54:01.532Z,110
2017-03-20T11:55:01.250Z,110
2017-03-20T11:55:46.661Z,110
2017-03-20T11:56:46.680Z,110
2017-03-20T11:57:46.719Z,100
2017-03-20T11:58:46.739Z,85
2017-03-20T11:59:47.059Z,80
2017-03-20T12:00:46.783Z,80
2017-03-20T12:01:46.800Z,75
2017-03-20T12:02:46.827Z,85
2017-03-20T12:03:47.153Z,90
2017-03-20T12:04:46.873Z,95
2017-03-20T12:05:46.891Z,100
2017-03-20T12:07:01.836Z,95
2017-03-20T12:07:47.245Z,95
2017-03-20T12:08:47.274Z,85
2017-03-20T12:09:46.727Z,75
2017-03-20T12:11:01.621Z,75
2017-03-20T12:11:46.727Z,70
2017-03-20T12:13:01.981Z,70
2017-03-20T12:13:47.389Z,70
2017-03-20T12:14:46.797Z,70
2017-03-20T12:16:47.451Z,70
2017-03-20T12:17:46.875Z,70
2017-03-20T12:19:02.128Z,60
2017-03-20T12:19:47.525Z,60
2017-03-20T12:21:01.860Z,65
2017-03-20T12:21:47.266Z,65
2017-03-20T12:23:01.905Z,65
2017-03-20T12:23:46.709Z,65
2017-03-20T12:25:01.952Z,60
2017-03-20T12:25:47.067Z,60
2017-03-20T12:27:02.009Z,60
2017-03-20T12:28:02.031Z,60
2017-03-20T12:29:16.670Z,65
2017-03-20T12:30:02.380Z,70
2017-03-20T12:30:47.514Z,75
2017-03-20T12:32:17.042Z,75
2017-03-20T12:33:17.065Z,75
2017-03-20T12:33:47.547Z,75
2017-03-20T12:34:47.616Z,75
2017-03-20T12:35:47.590Z,80
2017-03-20T12:36:47.620Z,85
2017-03-20T12:37:47.946Z,100
2017-03-20T12:38:47.662Z,115
2017-03-20T12:39:47.989Z,130
2017-03-20T12:40:48.007Z,125
2017-03-20T12:42:02.348Z,120
2017-03-20T12:42:48.063Z,115
2017-03-20T12:45:47.835Z,110
2017-03-20T12:47:02.160Z,115
2017-03-20T12:47:47.881Z,125
2017-03-20T12:48:47.895Z,135
2017-03-20T12:50:02.533Z,120
2017-03-20T12:50:47.645Z,110
2017-03-20T12:51:47.658Z,100
2017-03-20T12:52:48.002Z,90
2017-03-20T12:53:48.014Z,90
2017-03-20T12:55:02.952Z,95
2017-03-20T12:55:48.056Z,90
2017-03-20T12:56:48.082Z,85
2017-03-20T12:57:48.438Z,70
2017-03-20T12:58:48.131Z,60
2017-03-20T12:59:47.850Z,60
2017-03-20T13:01:03.090Z,60
2017-03-20T13:02:48.529Z,60
2017-03-20T13:03:48.553Z,50
2017-03-20T13:05:03.212Z,50
2017-03-20T13:05:48.289Z,50
2017-03-20T13:07:02.627Z,50
2017-03-20T13:07:48.645Z,45
2017-03-20T13:09:02.982Z,45
2017-03-20T13:10:03.003Z,50
2017-03-20T13:11:03.026Z,50
2017-03-20T13:11:48.125Z,50
2017-03-20T13:13:03.071Z,45
2017-03-20T13:14:03.404Z,50
2017-03-20T13:14:48.813Z,50
2017-03-20T13:15:48.524Z,55
2017-03-20T13:17:03.161Z,55
2017-03-20T13:18:03.192Z,60
2017-03-20T13:18:48.908Z,65
2017-03-20T13:19:48.922Z,70
2017-03-20T13:20:48.334Z,80
2017-03-20T13:22:03.585Z,85
2017-03-20T13:22:48.991Z,85
2017-03-20T13:23:49.022Z,85
2017-03-20T13:24:49.035Z,75
2017-03-20T13:26:18.292Z,80
2017-03-20T13:27:03.403Z,85
2017-03-20T13:27:49.109Z,90
2017-03-20T13:28:49.132Z,100
2017-03-20T13:30:03.472Z,110
2017-03-20T13:30:49.179Z,120
2017-03-20T13:31:49.199Z,120
2017-03-20T13:32:49.230Z,115
2017-03-20T13:35:49.287Z,85
2017-03-20T13:36:49.320Z,90
2017-03-20T13:37:49.345Z,95
2017-03-20T13:38:49.097Z,95
2017-03-20T13:39:49.387Z,90
2017-03-20T13:40:49.407Z,75
2017-03-20T13:41:49.430Z,70
2017-03-20T13:42:49.462Z,65
2017-03-20T13:43:49.230Z,70
2017-03-20T13:44:49.200Z,85
2017-03-20T13:46:04.142Z,100
2017-03-20T13:46:49.562Z,110
2017-03-20T13:47:49.268Z,110
2017-03-20T13:48:49.401Z,110
2017-03-20T13:49:49.314Z,110
2017-03-20T13:51:49.398Z,105
2017-03-20T13:52:49.392Z,120
2017-03-20T13:53:49.415Z,125
2017-03-20T13:54:49.434Z,125
2017-03-20T13:55:49.763Z,125
2017-03-20T13:56:50.093Z,125
2017-03-20T13:57:49.825Z,120
2017-03-20T13:59:04.446Z,105
2017-03-20T13:59:49.554Z,95
2017-03-20T14:00:49.882Z,90
2017-03-20T14:02:04.525Z,90
2017-03-20T14:02:49.631Z,90
2017-03-20T14:03:49.656Z,95
2017-03-20T14:04:49.973Z,95
2017-03-20T14:05:49.994Z,95
2017-03-20T14:06:50.023Z,95
2017-03-20T14:07:49.743Z,95
2017-03-20T14:08:49.771Z,85
2017-03-20T14:09:50.092Z,85
2017-03-20T14:10:49.512Z,85
2017-03-20T14:11:50.139Z,90
2017-03-20T14:13:04.785Z,105
2017-03-20T14:13:50.195Z,105
2017-03-20T14:14:50.211Z,105
2017-03-20T14:15:50.240Z,105
2017-03-20T14:17:04.873Z,110
2017-03-20T14:17:50.290Z,130
2017-03-20T14:18:50.316Z,140
2017-03-20T14:19:50.336Z,165
2017-03-20T14:21:50.075Z,140
2017-03-20T14:22:49.805Z,140
2017-03-20T14:23:50.430Z,135
2017-03-20T14:24:50.154Z,130
2017-03-20T14:25:50.171Z,120
2017-03-20T14:26:50.495Z,120
2017-03-20T14:27:50.521Z,115
2017-03-20T14:28:50.549Z,110
2017-03-20T14:29:50.267Z,110
2017-03-20T14:30:50.293Z,105
2017-03-20T14:31:50.314Z,95
2017-03-20T14:32:50.343Z,90
2017-03-20T14:33:50.372Z,80
2017-03-20T14:35:50.713Z,80
2017-03-20T14:37:04.757Z,80
2017-03-20T14:37:50.910Z,80
2017-03-20T14:38:50.485Z,80
2017-03-20T14:39:50.826Z,75
2017-03-20T14:40:50.527Z,75
2017-03-20T14:41:50.251Z,70
2017-03-20T14:42:50.584Z,70
2017-03-20T14:44:05.525Z,75
2017-03-20T14:45:50.954Z,80
2017-03-20T14:46:50.973Z,75
2017-03-20T14:47:51.008Z,70
2017-03-20T14:49:05.642Z,75
2017-03-20T14:49:50.747Z,75
2017-03-20T14:51:05.685Z,70
2017-03-20T14:52:05.417Z,70
2017-03-20T14:52:51.128Z,65
2017-03-20T14:53:51.146Z,55
2017-03-20T14:54:51.164Z,50
2017-03-20T14:56:50.913Z,40
2017-03-20T14:58:05.853Z,40
2017-03-20T14:58:51.266Z,40
2017-03-20T14:59:50.982Z,40
2017-03-20T15:01:20.541Z,40
2017-03-20T15:02:05.642Z,40
2017-03-20T15:03:05.985Z,40
2017-03-20T15:03:51.083Z,40
2017-03-20T15:05:05.718Z,40
2017-03-20T15:05:51.123Z,40
2017-03-20T15:06:51.146Z,35
2017-03-20T15:07:51.175Z,35
2017-03-20T15:09:06.119Z,35
2017-03-20T15:09:51.523Z,35
2017-03-20T15:10:51.240Z,40
2017-03-20T15:11:51.263Z,45
2017-03-20T15:13:06.215Z,50
2017-03-20T15:13:51.319Z,55
2017-03-20T15:15:06.253Z,55
2017-03-20T15:15:51.693Z,55
2017-03-20T15:17:52.015Z,55
2017-03-20T15:19:06.350Z,55
2017-03-20T15:19:51.759Z,55
2017-03-20T15:21:06.395Z,55
2017-03-20T15:21:52.251Z,55
2017-03-20T15:22:51.848Z,55
2017-03-20T15:23:51.845Z,50
2017-03-20T15:24:51.873Z,50
2017-03-20T15:25:51.899Z,50
2017-03-20T15:26:51.922Z,50
2017-03-20T15:27:51.956Z,50
2017-03-20T15:29:05.983Z,50